Time;durP1;ratioP1;P1;durP2;ratioP2;P2;SDS_P1;SDS_P2;PMS_P1;PMS_P2;Temp;Humidity;BMP_temperature;BMP_pressure;BME280_temperature;BME280_humidity;BME280_pressure;Samples;Min_cycle;Max_cycle;Signal;HPM_P1;HPM_P2
2024/01/22 00:01:41;;;;;;;12.70;7.10;;;6.00;83.30;;;;;;5028999;28;20049;-74
2024/01/22 00:04:07;;;;;;;13.67;7.93;;;5.90;83.40;;;;;;5008944;28;20124;-71
2024/01/22 00:06:36;;;;;;;13.87;7.33;;;5.90;83.20;;;;;;5039193;28;20053;-72
2024/01/22 00:09:02;;;;;;;14.67;7.00;;;5.90;83.20;;;;;;5028299;28;20431;-73
2024/01/22 00:11:29;;;;;;;17.57;7.17;;;5.90;83.20;;;;;;5005874;28;20072;-72
2024/01/22 00:13:55;;;;;;;16.40;7.77;;;6.00;83.00;;;;;;5011861;28;20552;-71
2024/01/22 00:16:21;;;;;;;14.17;6.57;;;6.00;83.10;;;;;;5032488;28;20056;-72
2024/01/22 00:18:47;;;;;;;13.13;6.93;;;6.10;83.00;;;;;;5035978;28;20416;-73
2024/01/22 00:21:13;;;;;;;14.37;6.73;;;6.10;83.00;;;;;;5034305;28;20140;-72
2024/01/22 00:23:38;;;;;;;11.67;6.73;;;6.10;82.90;;;;;;5037882;28;20675;-73
2024/01/22 00:26:04;;;;;;;13.13;6.30;;;6.20;82.90;;;;;;5036574;28;20037;-72
2024/01/22 00:28:30;;;;;;;12.33;6.60;;;6.20;82.80;;;;;;5029242;28;20433;-72
2024/01/22 00:30:55;;;;;;;13.93;6.67;;;6.20;82.80;;;;;;5021299;28;20060;-72
2024/01/22 00:33:21;;;;;;;12.33;6.53;;;6.20;82.80;;;;;;5037403;28;20623;-73
2024/01/22 00:35:47;;;;;;;13.87;6.23;;;6.20;82.90;;;;;;5026092;28;20047;-73
2024/01/22 00:38:13;;;;;;;12.30;6.57;;;6.30;82.80;;;;;;5014614;28;20140;-72
2024/01/22 00:40:38;;;;;;;9.27;6.13;;;6.30;82.80;;;;;;5037922;28;20087;-73
2024/01/22 00:43:04;;;;;;;11.73;6.33;;;6.40;82.80;;;;;;5044053;28;20053;-72
2024/01/22 00:45:30;;;;;;;15.30;6.63;;;6.40;82.40;;;;;;5022699;28;20136;-72
2024/01/22 00:47:56;;;;;;;13.43;6.23;;;6.50;82.30;;;;;;5037948;28;20056;-71
2024/01/22 00:50:21;;;;;;;12.93;5.83;;;6.50;82.20;;;;;;5023010;28;20136;-72
2024/01/22 00:52:47;;;;;;;11.67;6.40;;;6.60;82.10;;;;;;5038116;28;20045;-72
2024/01/22 00:55:13;;;;;;;13.77;6.10;;;6.60;82.20;;;;;;5041168;28;20042;-72
2024/01/22 00:57:39;;;;;;;13.57;6.17;;;6.60;82.20;;;;;;5022700;28;20049;-71
2024/01/22 01:00:06;;;;;;;13.40;5.93;;;6.60;82.30;;;;;;5038571;28;20094;-71
2024/01/22 01:02:31;;;;;;;10.33;5.77;;;6.70;82.20;;;;;;5042776;28;20103;-72
2024/01/22 01:04:57;;;;;;;14.00;6.30;;;6.70;82.10;;;;;;5045261;28;20381;-72
2024/01/22 01:07:23;;;;;;;15.70;6.60;;;6.70;81.90;;;;;;5041703;28;20057;-73
2024/01/22 01:09:49;;;;;;;10.40;5.90;;;6.80;82.00;;;;;;5040401;28;20104;-74
2024/01/22 01:12:15;;;;;;;13.63;6.77;;;6.80;82.20;;;;;;5045035;28;20512;-72
2024/01/22 01:14:40;;;;;;;11.60;6.03;;;6.80;82.50;;;;;;5042146;28;20496;-71
2024/01/22 01:17:06;;;;;;;11.00;6.53;;;6.80;82.80;;;;;;5040689;28;20404;-72
2024/01/22 01:19:32;;;;;;;13.57;6.80;;;6.70;83.40;;;;;;5038972;28;20053;-73
2024/01/22 01:21:57;;;;;;;16.10;6.53;;;6.70;83.50;;;;;;5023682;28;20074;-72
2024/01/22 01:24:23;;;;;;;14.43;7.03;;;6.70;83.80;;;;;;5042650;28;20052;-72
2024/01/22 01:26:49;;;;;;;13.60;6.70;;;6.70;84.00;;;;;;5044419;28;20052;-73
2024/01/22 01:29:14;;;;;;;12.93;6.50;;;6.70;84.00;;;;;;5048749;28;20045;-74
2024/01/22 01:31:40;;;;;;;13.60;6.60;;;6.70;84.00;;;;;;5040445;28;20385;-72
2024/01/22 01:34:06;;;;;;;11.60;6.90;;;6.80;84.10;;;;;;5040981;28;20053;-73
2024/01/22 01:36:32;;;;;;;12.80;6.20;;;6.80;84.00;;;;;;5034448;28;20051;-73
2024/01/22 01:38:57;;;;;;;13.50;5.70;;;6.90;84.00;;;;;;5037442;28;20055;-72
2024/01/22 01:41:23;;;;;;;16.50;6.80;;;6.90;84.00;;;;;;5037288;28;20049;-73
2024/01/22 01:43:49;;;;;;;11.90;6.70;;;6.90;84.10;;;;;;5046963;28;20622;-74
2024/01/22 01:46:15;;;;;;;12.50;6.90;;;7.00;84.50;;;;;;5033733;28;20103;-74
2024/01/22 01:48:40;;;;;;;15.33;7.30;;;7.00;84.80;;;;;;5036428;28;20509;-74
2024/01/22 01:51:07;;;;;;;10.63;6.50;;;7.00;85.10;;;;;;5023986;28;20076;-72
2024/01/22 01:53:33;;;;;;;12.67;6.40;;;7.00;85.10;;;;;;5044976;28;20068;-73
2024/01/22 01:56:00;;;;;;;10.53;6.40;;;7.10;85.00;;;;;;5024847;28;20595;-74
2024/01/22 01:58:26;;;;;;;15.57;6.80;;;7.20;85.10;;;;;;5039039;28;20054;-73
2024/01/22 02:00:56;;;;;;;13.67;6.87;;;7.20;85.30;;;;;;5040700;28;20049;-75
2024/01/22 02:03:22;;;;;;;14.30;7.20;;;7.20;85.20;;;;;;5041429;28;20061;-73
2024/01/22 02:05:47;;;;;;;13.07;7.03;;;7.20;85.40;;;;;;5021103;28;20107;-73
2024/01/22 02:08:13;;;;;;;13.10;7.13;;;7.20;85.70;;;;;;5035137;28;20056;-74
2024/01/22 02:10:39;;;;;;;13.47;7.17;;;7.20;86.00;;;;;;5021662;28;20048;-75
2024/01/22 02:13:08;;;;;;;18.23;7.13;;;7.20;86.00;;;;;;5022043;28;20048;-73
2024/01/22 02:15:34;;;;;;;13.27;7.67;;;7.20;86.40;;;;;;5043248;28;20136;-74
2024/01/22 02:18:01;;;;;;;16.00;8.00;;;7.20;86.50;;;;;;5039656;28;20187;-74
2024/01/22 02:20:27;;;;;;;13.40;6.67;;;7.20;86.40;;;;;;5040740;28;20495;-73
2024/01/22 02:22:53;;;;;;;13.97;6.77;;;7.20;86.60;;;;;;5036519;28;20048;-75
2024/01/22 02:25:18;;;;;;;17.23;7.00;;;7.20;86.60;;;;;;5040309;28;20067;-73
2024/01/22 02:27:44;;;;;;;12.53;6.20;;;7.20;86.80;;;;;;5034403;28;20169;-73
2024/01/22 02:30:10;;;;;;;14.57;6.77;;;7.40;87.00;;;;;;5035668;28;20056;-73
2024/01/22 02:32:36;;;;;;;12.03;6.50;;;7.40;86.90;;;;;;5021789;28;20044;-73
2024/01/22 02:35:02;;;;;;;14.77;6.90;;;7.40;86.70;;;;;;5039543;28;20055;-73
2024/01/22 02:37:28;;;;;;;13.37;6.27;;;7.50;86.60;;;;;;5032829;28;20049;-73
2024/01/22 02:39:53;;;;;;;14.90;7.17;;;7.50;86.40;;;;;;5040266;28;20057;-74
2024/01/22 02:42:19;;;;;;;15.90;6.87;;;7.50;86.70;;;;;;5032055;28;20058;-73
2024/01/22 02:44:45;;;;;;;14.43;6.77;;;7.50;86.90;;;;;;5026784;28;20052;-74
2024/01/22 02:47:11;;;;;;;14.37;7.13;;;7.50;86.90;;;;;;5016930;28;20076;-72
2024/01/22 02:49:37;;;;;;;12.20;6.77;;;7.50;87.10;;;;;;5038292;28;20144;-74
2024/01/22 02:52:03;;;;;;;11.57;6.57;;;7.50;87.20;;;;;;5030222;28;20152;-75
2024/01/22 02:54:29;;;;;;;13.37;6.40;;;7.60;87.30;;;;;;5019629;28;20384;-73
2024/01/22 02:56:55;;;;;;;9.77;6.47;;;7.60;87.20;;;;;;5041203;28;20053;-74
2024/01/22 02:59:20;;;;;;;11.40;6.97;;;7.60;87.20;;;;;;5018474;28;20560;-73
2024/01/22 03:01:46;;;;;;;11.37;6.13;;;7.60;87.30;;;;;;5038010;28;20144;-73
2024/01/22 03:04:11;;;;;;;12.07;7.00;;;7.60;87.30;;;;;;5021208;28;20052;-75
2024/01/22 03:06:38;;;;;;;11.80;7.30;;;7.60;87.40;;;;;;5023621;28;20048;-75
2024/01/22 03:09:05;;;;;;;11.47;7.13;;;7.60;87.50;;;;;;5042439;28;20052;-74
2024/01/22 03:11:30;;;;;;;12.80;7.07;;;7.60;87.70;;;;;;5026136;28;20313;-73
2024/01/22 03:13:56;;;;;;;17.07;7.33;;;7.60;87.70;;;;;;5039585;28;20048;-74
2024/01/22 03:16:22;;;;;;;12.47;6.93;;;7.60;87.70;;;;;;5022999;28;20480;-74
2024/01/22 03:18:48;;;;;;;13.53;6.47;;;7.60;87.80;;;;;;5023288;28;20049;-74
2024/01/22 03:21:14;;;;;;;13.60;7.53;;;7.60;87.90;;;;;;5040252;28;20041;-75
2024/01/22 03:23:40;;;;;;;11.67;6.97;;;7.60;88.10;;;;;;5022286;28;20521;-75
2024/01/22 03:26:06;;;;;;;13.13;7.30;;;7.60;88.20;;;;;;5027698;28;20049;-74
2024/01/22 03:28:31;;;;;;;13.63;8.30;;;7.60;88.40;;;;;;5044187;28;20511;-73
2024/01/22 03:30:57;;;;;;;12.07;8.10;;;7.60;88.50;;;;;;5040835;28;20037;-74
2024/01/22 03:33:23;;;;;;;13.37;7.57;;;7.60;88.60;;;;;;5021389;28;20057;-73
2024/01/22 03:35:48;;;;;;;19.00;8.30;;;7.60;88.60;;;;;;5042357;28;20056;-73
2024/01/22 03:38:14;;;;;;;13.20;7.83;;;7.60;88.80;;;;;;5037797;28;20056;-73
2024/01/22 03:40:40;;;;;;;16.07;8.40;;;7.60;88.80;;;;;;5038398;28;20056;-75
2024/01/22 03:43:05;;;;;;;13.17;7.20;;;7.50;88.90;;;;;;5019526;28;20050;-74
2024/01/22 03:45:31;;;;;;;13.63;7.63;;;7.60;89.00;;;;;;5032802;28;20503;-74
2024/01/22 03:47:57;;;;;;;11.37;7.10;;;7.60;89.10;;;;;;5019089;28;20084;-73
2024/01/22 03:50:22;;;;;;;17.40;7.00;;;7.60;89.20;;;;;;5040705;28;20080;-74
2024/01/22 03:52:48;;;;;;;13.80;7.57;;;7.60;89.20;;;;;;5028278;28;20057;-74
2024/01/22 03:55:14;;;;;;;12.43;7.70;;;7.60;89.20;;;;;;5021373;28;20053;-74
2024/01/22 03:57:39;;;;;;;16.53;7.00;;;7.60;89.20;;;;;;5031043;28;20807;-72
2024/01/22 04:00:06;;;;;;;7.93;6.33;;;7.70;89.30;;;;;;5031063;28;20544;-75
2024/01/22 04:02:34;;;;;;;7.77;5.97;;;7.70;89.30;;;;;;5015474;28;20453;-74
2024/01/22 04:05:00;;;;;;;9.03;6.83;;;7.70;89.30;;;;;;5041318;28;20060;-75
2024/01/22 04:07:26;;;;;;;9.23;6.43;;;7.80;89.20;;;;;;5043815;28;20053;-73
2024/01/22 04:09:52;;;;;;;11.33;6.50;;;7.80;89.30;;;;;;5039486;28;20408;-75
2024/01/22 04:12:17;;;;;;;9.70;6.00;;;7.80;89.30;;;;;;5012550;28;20103;-74
2024/01/22 04:14:43;;;;;;;9.50;6.37;;;7.90;89.20;;;;;;5038358;28;20056;-73
2024/01/22 04:17:09;;;;;;;9.90;6.07;;;7.90;89.20;;;;;;5042390;28;20140;-75
2024/01/22 04:19:35;;;;;;;8.17;5.67;;;7.90;89.10;;;;;;5043159;28;20056;-74
2024/01/22 04:22:03;;;;;;;8.20;5.70;;;8.00;89.20;;;;;;5037270;28;20094;-73
2024/01/22 04:24:29;;;;;;;6.70;4.93;;;8.00;89.30;;;;;;5043167;28;20045;-73
2024/01/22 04:26:54;;;;;;;9.40;5.57;;;8.00;89.30;;;;;;5043159;28;20048;-74
2024/01/22 04:29:20;;;;;;;10.73;5.97;;;8.10;89.30;;;;;;5046693;28;20381;-73
2024/01/22 04:31:46;;;;;;;8.27;5.43;;;8.10;89.30;;;;;;5038139;28;20489;-73
2024/01/22 04:34:12;;;;;;;7.53;5.20;;;8.20;89.30;;;;;;5024444;28;20052;-74
2024/01/22 04:36:37;;;;;;;7.90;5.57;;;8.20;89.40;;;;;;5043965;28;20052;-74
2024/01/22 04:39:03;;;;;;;8.23;5.30;;;8.20;89.40;;;;;;5045187;28;20095;-77
2024/01/22 04:41:28;;;;;;;7.57;4.63;;;8.20;89.30;;;;;;5037805;28;20413;-74
2024/01/22 04:43:54;;;;;;;6.83;4.93;;;8.30;89.50;;;;;;5039356;28;20094;-74
2024/01/22 04:46:20;;;;;;;9.40;4.87;;;8.30;89.50;;;;;;5023417;28;20064;-74
2024/01/22 04:48:45;;;;;;;5.47;4.20;;;8.30;89.60;;;;;;5042644;28;20060;-74
2024/01/22 04:51:11;;;;;;;6.67;3.93;;;8.40;89.60;;;;;;5035150;28;20112;-76
2024/01/22 04:53:37;;;;;;;8.00;4.80;;;8.40;89.50;;;;;;5046003;28;20093;-74
2024/01/22 04:56:03;;;;;;;6.10;4.23;;;8.50;89.50;;;;;;5043882;28;20171;-76
2024/01/22 04:58:28;;;;;;;6.40;4.57;;;8.50;89.60;;;;;;5045022;28;20061;-76
2024/01/22 05:00:54;;;;;;;7.27;3.93;;;8.60;89.60;;;;;;5027788;28;20256;-75
2024/01/22 05:03:20;;;;;;;5.10;3.73;;;8.60;89.60;;;;;;5042633;28;20419;-74
2024/01/22 05:05:45;;;;;;;4.80;3.60;;;8.70;89.70;;;;;;5016261;28;20049;-75
2024/01/22 05:08:11;;;;;;;4.90;3.37;;;8.70;89.50;;;;;;5040137;28;20048;-75
2024/01/22 05:10:37;;;;;;;3.83;2.87;;;8.80;89.50;;;;;;5046529;28;20041;-73
2024/01/22 05:13:02;;;;;;;6.43;3.07;;;8.80;89.60;;;;;;5038787;28;20045;-74
2024/01/22 05:15:28;;;;;;;5.57;3.07;;;8.90;89.50;;;;;;5043538;28;20079;-73
2024/01/22 05:17:54;;;;;;;2.97;2.37;;;9.00;89.50;;;;;;5043005;28;20374;-74
2024/01/22 05:20:19;;;;;;;4.37;2.30;;;9.00;89.40;;;;;;5043771;28;20060;-75
2024/01/22 05:22:45;;;;;;;2.67;2.07;;;9.10;89.50;;;;;;5015673;28;20106;-75
2024/01/22 05:25:12;;;;;;;3.90;1.90;;;9.20;89.50;;;;;;5044203;28;20048;-74
2024/01/22 05:27:37;;;;;;;5.73;2.20;;;9.20;89.50;;;;;;5044083;28;20053;-73
2024/01/22 05:30:04;;;;;;;3.93;1.70;;;9.30;89.50;;;;;;5047886;28;20107;-75
2024/01/22 05:32:32;;;;;;;2.87;1.50;;;9.40;89.40;;;;;;5035092;28;20049;-73
2024/01/22 05:34:57;;;;;;;2.73;1.63;;;9.40;89.30;;;;;;5038635;28;20060;-74
2024/01/22 05:37:23;;;;;;;2.23;1.30;;;9.40;89.10;;;;;;5030705;28;20061;-73
2024/01/22 05:39:49;;;;;;;3.37;1.70;;;9.50;89.00;;;;;;5045630;28;20060;-74
2024/01/22 05:42:14;;;;;;;2.47;1.40;;;9.50;88.70;;;;;;5018826;28;20050;-74
2024/01/22 05:44:40;;;;;;;5.47;1.53;;;9.50;88.30;;;;;;5039448;28;20172;-75
2024/01/22 05:47:06;;;;;;;3.63;1.37;;;9.50;88.20;;;;;;5043300;28;20045;-74
2024/01/22 05:49:31;;;;;;;5.10;1.20;;;9.60;88.00;;;;;;5045625;28;20048;-76
2024/01/22 05:51:58;;;;;;;3.50;0.97;;;9.50;87.80;;;;;;5038172;28;20050;-74
2024/01/22 05:54:24;;;;;;;3.70;1.30;;;9.50;87.70;;;;;;5038825;28;20063;-74
2024/01/22 05:56:50;;;;;;;3.53;1.53;;;9.60;87.60;;;;;;5035568;28;20056;-74
2024/01/22 05:59:16;;;;;;;3.80;1.27;;;9.60;87.40;;;;;;5034893;28;20102;-77
2024/01/22 06:01:42;;;;;;;5.77;1.30;;;9.60;87.50;;;;;;5034374;28;20045;-75
2024/01/22 06:04:07;;;;;;;4.73;1.17;;;9.60;87.70;;;;;;5031522;28;21928;-75
2024/01/22 06:06:33;;;;;;;2.93;1.30;;;9.60;87.30;;;;;;5043816;28;20124;-74
2024/01/22 06:08:59;;;;;;;6.40;1.70;;;9.60;87.10;;;;;;5043574;28;20052;-74
2024/01/22 06:11:26;;;;;;;4.57;1.37;;;9.50;87.20;;;;;;5030295;28;20073;-73
2024/01/22 06:13:52;;;;;;;2.97;1.07;;;9.50;87.20;;;;;;5033975;28;20139;-74
2024/01/22 06:16:18;;;;;;;2.93;0.70;;;9.40;87.20;;;;;;5044361;28;20131;-74
2024/01/22 06:18:45;;;;;;;3.30;0.83;;;9.40;87.10;;;;;;5025650;28;20645;-73
2024/01/22 06:21:13;;;;;;;3.97;1.20;;;9.40;87.10;;;;;;5027624;28;20304;-74
2024/01/22 06:23:39;;;;;;;4.80;1.50;;;9.40;86.90;;;;;;5021186;28;20485;-75
2024/01/22 06:26:05;;;;;;;3.80;1.17;;;9.40;87.00;;;;;;5044341;28;20052;-75
2024/01/22 06:28:31;;;;;;;6.57;1.53;;;9.40;87.10;;;;;;5038720;28;20054;-74
2024/01/22 06:30:57;;;;;;;6.23;2.03;;;9.40;87.20;;;;;;5022054;28;20045;-74
2024/01/22 06:33:24;;;;;;;6.03;2.30;;;9.40;87.30;;;;;;5023723;28;20049;-75
2024/01/22 06:35:50;;;;;;;6.33;2.20;;;9.40;87.50;;;;;;5046193;28;20144;-74
2024/01/22 06:38:19;;;;;;;7.07;2.83;;;9.40;87.70;;;;;;5045337;28;20045;-74
2024/01/22 06:40:45;;;;;;;9.73;2.93;;;9.40;87.90;;;;;;5026911;28;20114;-73
2024/01/22 06:43:11;;;;;;;17.30;3.40;;;9.40;87.90;;;;;;5024175;28;20049;-75
2024/01/22 06:45:37;;;;;;;11.87;3.30;;;9.40;87.70;;;;;;5019682;28;20045;-74
2024/01/22 06:48:03;;;;;;;13.53;3.60;;;9.40;87.40;;;;;;5013616;28;20083;-77
2024/01/22 06:50:29;;;;;;;16.17;3.87;;;9.30;87.40;;;;;;5038519;28;20068;-75
2024/01/22 06:52:55;;;;;;;15.97;4.00;;;9.30;87.30;;;;;;5035408;28;20080;-73
2024/01/22 06:55:24;;;;;;;12.53;4.10;;;9.20;87.20;;;;;;5039843;28;20092;-75
2024/01/22 06:57:50;;;;;;;17.97;3.83;;;9.20;87.20;;;;;;5042603;28;20049;-74
2024/01/22 07:00:19;;;;;;;14.33;4.13;;;9.20;87.20;;;;;;5040395;28;20041;-74
2024/01/22 07:02:45;;;;;;;16.40;4.07;;;9.20;87.10;;;;;;5014462;28;20049;-73
2024/01/22 07:05:10;;;;;;;16.97;3.27;;;9.20;87.00;;;;;;5032635;28;20052;-74
2024/01/22 07:07:37;;;;;;;19.47;4.53;;;9.20;86.90;;;;;;5039491;28;20060;-72
2024/01/22 07:10:05;;;;;;;24.23;5.13;;;9.20;86.90;;;;;;5034757;28;20343;-74
2024/01/22 07:12:31;;;;;;;20.00;4.83;;;9.20;86.70;;;;;;5047623;28;20542;-73
2024/01/22 07:14:57;;;;;;;28.07;6.43;;;9.20;86.60;;;;;;5034830;28;20499;-75
2024/01/22 07:17:23;;;;;;;28.93;6.43;;;9.20;86.60;;;;;;5043856;28;20057;-74
2024/01/22 07:19:49;;;;;;;29.93;6.53;;;9.20;86.40;;;;;;5037904;28;20503;-75
2024/01/22 07:22:15;;;;;;;34.07;7.10;;;9.20;86.30;;;;;;5035275;28;20095;-73
2024/01/22 07:24:41;;;;;;;34.90;7.10;;;9.10;86.00;;;;;;5017521;28;20051;-74
2024/01/22 07:27:07;;;;;;;39.67;7.67;;;9.20;85.80;;;;;;5030816;28;20052;-74
2024/01/22 07:29:34;;;;;;;31.73;7.40;;;9.20;85.80;;;;;;5036899;28;20749;-74
2024/01/22 07:32:00;;;;;;;33.73;7.10;;;9.10;85.80;;;;;;5017129;28;20049;-74
2024/01/22 07:34:26;;;;;;;37.97;8.77;;;9.10;85.70;;;;;;5035364;28;20107;-75
2024/01/22 07:36:52;;;;;;;43.17;8.20;;;9.10;85.70;;;;;;5014511;28;20053;-74
2024/01/22 07:39:18;;;;;;;39.57;8.93;;;9.10;85.70;;;;;;5042677;28;20190;-75
2024/01/22 07:41:44;;;;;;;56.60;10.03;;;9.00;85.90;;;;;;5035626;28;20044;-73
2024/01/22 07:44:10;;;;;;;55.53;10.23;;;9.00;86.10;;;;;;5042734;28;20052;-75
2024/01/22 07:46:36;;;;;;;50.27;9.83;;;9.00;86.50;;;;;;5041726;28;20052;-74
2024/01/22 07:49:01;;;;;;;51.70;10.10;;;8.90;86.90;;;;;;5042255;28;20373;-74
2024/01/22 07:51:29;;;;;;;44.80;9.03;;;8.90;87.20;;;;;;5021451;28;20094;-74
2024/01/22 07:53:55;;;;;;;45.80;8.63;;;8.90;87.30;;;;;;5042359;28;20130;-75
2024/01/22 07:56:21;;;;;;;36.40;7.40;;;8.80;87.70;;;;;;5042133;28;20085;-75
2024/01/22 07:58:47;;;;;;;31.40;6.77;;;8.80;87.70;;;;;;5043351;28;20412;-74
2024/01/22 08:01:12;;;;;;;29.00;5.87;;;8.70;87.50;;;;;;5024340;28;20045;-74
2024/01/22 08:03:38;;;;;;;27.63;5.77;;;8.80;87.40;;;;;;5026480;28;20046;-74
2024/01/22 08:06:04;;;;;;;22.70;5.03;;;8.80;87.40;;;;;;5039725;28;20506;-72
2024/01/22 08:08:30;;;;;;;22.13;4.80;;;8.80;87.20;;;;;;5046927;28;20045;-73
2024/01/22 08:10:56;;;;;;;19.40;3.87;;;8.80;87.00;;;;;;5038059;28;20076;-72
2024/01/22 08:13:22;;;;;;;18.57;4.27;;;8.80;86.90;;;;;;5041926;28;20438;-75
2024/01/22 08:15:48;;;;;;;21.10;4.40;;;8.80;86.90;;;;;;5029602;28;20532;-74
2024/01/22 08:18:14;;;;;;;22.90;4.43;;;8.70;87.00;;;;;;5031098;28;20052;-74
2024/01/22 08:20:41;;;;;;;22.43;4.90;;;8.70;87.00;;;;;;5038779;28;20041;-74
2024/01/22 08:23:07;;;;;;;23.23;5.50;;;8.70;87.00;;;;;;5036561;28;20057;-75
2024/01/22 08:25:33;;;;;;;27.10;5.60;;;8.70;86.90;;;;;;5038043;28;20428;-74
2024/01/22 08:27:59;;;;;;;29.23;5.97;;;8.70;86.80;;;;;;5025737;28;20056;-73
2024/01/22 08:30:25;;;;;;;31.40;6.23;;;8.80;86.60;;;;;;5038422;28;20099;-74
2024/01/22 08:32:51;;;;;;;31.97;6.57;;;8.80;86.50;;;;;;5041885;28;20054;-73
2024/01/22 08:35:21;;;;;;;37.00;8.03;;;8.70;86.50;;;;;;5039469;28;20049;-74
2024/01/22 08:37:52;;;;;;;46.50;9.33;;;8.70;86.50;;;;;;5023553;28;20128;-74
2024/01/22 08:40:21;;;;;;;50.45;9.82;;;8.70;86.40;;;;;;5041396;28;20045;-73
2024/01/22 08:42:50;;;;;;;47.37;9.77;;;8.70;86.20;;;;;;5007967;28;20041;-74
2024/01/22 08:45:16;;;;;;;53.30;10.53;;;8.80;86.00;;;;;;5024391;28;20504;-74
2024/01/22 08:47:45;;;;;;;58.23;10.10;;;8.70;85.80;;;;;;5022928;28;20080;-72
2024/01/22 08:50:15;;;;;;;48.93;10.87;;;8.60;85.80;;;;;;5021060;28;20122;-74
2024/01/22 08:52:47;;;;;;;61.00;11.20;;;8.60;85.70;;;;;;5023124;28;20045;-74
2024/01/22 08:55:15;;;;;;;52.93;11.17;;;8.60;85.70;;;;;;5040387;28;20430;-73
2024/01/22 08:57:43;;;;;;;60.00;11.53;;;8.60;85.50;;;;;;5023512;28;20219;-73
2024/01/22 09:00:14;;;;;;;63.27;12.27;;;8.60;85.60;;;;;;5022867;28;20404;-74
2024/01/22 09:02:41;;;;;;;55.77;10.83;;;8.50;85.50;;;;;;5017112;28;20489;-73
2024/01/22 09:05:08;;;;;;;72.73;14.07;;;8.50;85.60;;;;;;5023086;28;20368;-73
2024/01/22 09:07:35;;;;;;;69.70;14.17;;;8.50;85.70;;;;;;5001971;28;20041;-74
2024/01/22 09:10:03;;;;;;;73.03;15.30;;;8.50;85.70;;;;;;4991398;28;20075;-75
2024/01/22 09:12:29;;;;;;;76.97;14.30;;;8.50;85.70;;;;;;5019110;28;20117;-75
2024/01/22 09:14:55;;;;;;;79.27;13.83;;;8.50;85.60;;;;;;5019234;28;20743;-74
2024/01/22 09:17:20;;;;;;;71.33;15.40;;;8.50;85.60;;;;;;5011152;28;20095;-74
2024/01/22 09:19:46;;;;;;;83.07;15.63;;;8.60;85.40;;;;;;5012658;28;20049;-75
2024/01/22 09:22:12;;;;;;;83.00;15.30;;;8.60;85.10;;;;;;5011061;28;20049;-72
2024/01/22 09:24:37;;;;;;;86.20;15.77;;;8.60;84.90;;;;;;5029527;28;20072;-73
2024/01/22 09:27:03;;;;;;;77.03;16.17;;;8.60;84.80;;;;;;5030163;28;20140;-75
2024/01/22 09:29:29;;;;;;;81.10;14.97;;;8.70;84.80;;;;;;5030884;28;20044;-74
2024/01/22 09:31:55;;;;;;;77.70;15.67;;;8.80;84.70;;;;;;5012081;28;20041;-74
2024/01/22 09:34:20;;;;;;;81.30;15.87;;;8.80;84.30;;;;;;5027064;28;20052;-76
2024/01/22 09:36:46;;;;;;;74.03;15.63;;;8.80;84.10;;;;;;5029266;28;20337;-74
2024/01/22 09:39:12;;;;;;;76.30;15.43;;;8.80;84.00;;;;;;5031617;28;20057;-74
2024/01/22 09:41:38;;;;;;;66.60;14.33;;;8.90;83.70;;;;;;5032056;28;20374;-76
2024/01/22 09:44:06;;;;;;;70.97;14.90;;;8.90;83.40;;;;;;5029116;28;20044;-73
2024/01/22 09:46:33;;;;;;;62.10;12.53;;;8.90;83.40;;;;;;5030708;28;20051;-73
2024/01/22 09:48:59;;;;;;;62.67;13.20;;;8.90;83.00;;;;;;5028697;28;20048;-73
2024/01/22 09:51:28;;;;;;;61.53;13.97;;;8.90;82.90;;;;;;5028497;28;20784;-74
2024/01/22 09:54:01;;;;;;;66.63;13.10;;;8.90;82.70;;;;;;5029482;28;20067;-74
2024/01/22 09:56:28;;;;;;;61.67;12.90;;;8.90;82.90;;;;;;5033611;28;20106;-74
2024/01/22 09:59:00;;;;;;;63.73;12.73;;;9.00;82.20;;;;;;5030018;28;20057;-73
2024/01/22 10:01:27;;;;;;;65.87;12.17;;;9.00;82.20;;;;;;5025910;28;20053;-75
2024/01/22 10:03:53;;;;;;;68.73;13.20;;;9.20;81.90;;;;;;5027674;28;20057;-73
2024/01/22 10:06:21;;;;;;;58.13;13.23;;;9.20;82.00;;;;;;5005868;28;20049;-75
2024/01/22 10:08:57;;;;;;;69.37;13.20;;;9.20;82.00;;;;;;5010050;28;20061;-73
2024/01/22 10:11:23;;;;;;;65.30;12.33;;;9.30;81.20;;;;;;5025794;28;20744;-75
2024/01/22 10:13:50;;;;;;;48.37;10.30;;;9.40;81.20;;;;;;5006179;28;20053;-73
2024/01/22 10:16:16;;;;;;;58.73;12.60;;;9.50;80.60;;;;;;5006510;28;20053;-73
2024/01/22 10:19:05;;;;;;;50.23;11.20;;;9.60;79.80;;;;;;5003047;28;20324;-74
2024/01/22 10:21:31;;;;;;;48.43;10.50;;;9.60;79.30;;;;;;5007462;28;20041;-75
2024/01/22 10:24:02;;;;;;;47.83;10.97;;;9.80;79.20;;;;;;5028031;28;20057;-75
2024/01/22 10:26:28;;;;;;;44.87;10.10;;;9.90;79.00;;;;;;5026953;28;20465;-75
2024/01/22 10:29:10;;;;;;;43.13;9.50;;;9.80;78.30;;;;;;5008697;28;20057;-73
2024/01/22 10:31:53;;;;;;;47.27;9.53;;;9.70;78.30;;;;;;5016970;28;20405;-75
2024/01/22 10:34:19;;;;;;;47.57;10.23;;;9.70;77.90;;;;;;5008105;28;20046;-75
2024/01/22 10:36:44;;;;;;;41.83;8.87;;;9.70;78.10;;;;;;5023896;28;20066;-75
2024/01/22 10:39:10;;;;;;;37.43;8.67;;;9.80;77.20;;;;;;5009769;28;20364;-73
2024/01/22 10:41:38;;;;;;;41.73;8.80;;;10.00;76.20;;;;;;5020741;28;20721;-73
2024/01/22 10:44:05;;;;;;;38.90;8.60;;;10.20;75.20;;;;;;5009866;28;20141;-74
2024/01/22 10:46:31;;;;;;;38.53;8.50;;;10.50;75.70;;;;;;5008031;28;20053;-76
2024/01/22 10:48:58;;;;;;;28.70;7.50;;;11.00;73.90;;;;;;5007705;28;20045;-75
2024/01/22 10:51:25;;;;;;;29.03;7.50;;;11.40;72.40;;;;;;5015025;28;20056;-74
2024/01/22 10:53:52;;;;;;;30.60;7.17;;;11.50;71.10;;;;;;4991594;28;20572;-73
2024/01/22 10:56:21;;;;;;;31.57;7.67;;;11.40;70.80;;;;;;5004657;28;20064;-75
2024/01/22 10:58:49;;;;;;;35.17;6.90;;;11.50;70.50;;;;;;5006353;28;20053;-74
2024/01/22 11:01:21;;;;;;;30.57;7.00;;;11.30;69.80;;;;;;5015672;28;20065;-72
2024/01/22 11:03:52;;;;;;;37.33;7.07;;;10.80;69.70;;;;;;5011872;28;20049;-75
2024/01/22 11:06:21;;;;;;;32.43;6.80;;;10.50;71.30;;;;;;5013571;28;20511;-72
2024/01/22 11:08:52;;;;;;;33.10;6.77;;;10.10;72.00;;;;;;5000774;28;20045;-74
2024/01/22 11:11:28;;;;;;;39.53;7.28;;;10.00;72.70;;;;;;5026289;28;20052;-73
2024/01/22 11:13:56;;;;;;;33.93;7.03;;;9.80;73.50;;;;;;5026573;28;20041;-74
2024/01/22 11:16:23;;;;;;;34.50;7.73;;;10.10;74.00;;;;;;5023334;28;20473;-74
2024/01/22 11:18:55;;;;;;;35.30;7.70;;;10.60;73.10;;;;;;5025417;28;20048;-73
2024/01/22 11:21:21;;;;;;;35.10;8.10;;;10.90;71.50;;;;;;5022696;28;20056;-73
2024/01/22 11:24:05;;;;;;;23.60;6.07;;;11.10;70.80;;;;;;5023169;28;20045;-74
2024/01/22 11:26:31;;;;;;;31.23;6.67;;;11.30;70.20;;;;;;5007851;28;20052;-75
2024/01/22 11:29:12;;;;;;;26.47;6.20;;;11.70;70.10;;;;;;5004401;28;20059;-74
2024/01/22 11:31:38;;;;;;;27.50;6.80;;;12.20;67.70;;;;;;5014501;28;20107;-75
2024/01/22 11:34:04;;;;;;;30.33;6.50;;;12.40;66.60;;;;;;5024630;28;20425;-74
2024/01/22 11:36:48;;;;;;;26.63;6.63;;;12.40;67.60;;;;;;5030530;28;20114;-72
2024/01/22 11:39:32;;;;;;;28.53;6.13;;;12.30;66.20;;;;;;5026177;28;20056;-73
2024/01/22 11:41:58;;;;;;;26.67;5.83;;;12.30;66.90;;;;;;5018455;28;20057;-74
2024/01/22 11:44:26;;;;;;;26.45;5.63;;;12.20;67.70;;;;;;5023532;28;20063;-72
2024/01/22 11:47:05;;;;;;;33.45;6.88;;;12.30;67.40;;;;;;5027291;28;21014;-75
2024/01/22 11:49:30;;;;;;;27.05;6.38;;;12.50;66.00;;;;;;5021620;28;20609;-75
2024/01/22 11:51:56;;;;;;;30.13;6.45;;;12.40;65.80;;;;;;5022144;28;20305;-74
2024/01/22 11:54:22;;;;;;;20.90;5.60;;;12.30;66.80;;;;;;5024956;28;20148;-73
2024/01/22 11:56:50;;;;;;;28.17;6.75;;;12.50;66.50;;;;;;5023222;28;20076;-74
2024/01/22 11:59:16;;;;;;;19.80;5.82;;;12.50;66.10;;;;;;5018176;28;20053;-73
2024/01/22 12:01:43;;;;;;;26.05;5.65;;;12.00;66.20;;;;;;5012028;28;20053;-74
2024/01/22 12:04:10;;;;;;;26.52;6.30;;;11.90;66.40;;;;;;4989438;28;20083;-73
2024/01/22 12:06:51;;;;;;;34.00;6.40;;;11.90;66.80;;;;;;4992765;28;21507;-73
2024/01/22 12:09:17;;;;;;;22.30;4.25;;;11.50;66.20;;;;;;5024947;28;20079;-74
2024/01/22 12:11:53;;;;;;;23.60;5.37;;;10.90;67.10;;;;;;5028486;28;20486;-74
2024/01/22 12:14:19;;;;;;;27.00;6.30;;;10.50;68.00;;;;;;4997425;28;20380;-74
2024/01/22 12:16:45;;;;;;;26.63;6.30;;;10.30;68.70;;;;;;5008561;28;20056;-74
2024/01/22 12:19:14;;;;;;;24.87;5.77;;;10.40;68.60;;;;;;4986711;28;20550;-73
2024/01/22 12:21:40;;;;;;;28.03;6.43;;;10.60;68.50;;;;;;4986122;28;20053;-74
2024/01/22 12:24:14;;;;;;;31.30;5.70;;;10.60;68.40;;;;;;5005468;28;20053;-73
2024/01/22 12:26:40;;;;;;;27.47;5.57;;;10.60;68.70;;;;;;5007212;28;20298;-74
2024/01/22 12:29:07;;;;;;;25.83;5.67;;;10.50;69.00;;;;;;5004481;28;20041;-75
2024/01/22 12:31:33;;;;;;;28.13;6.27;;;10.40;69.00;;;;;;5003574;28;20136;-72
2024/01/22 12:34:11;;;;;;;23.40;5.77;;;10.20;69.30;;;;;;5007456;28;20053;-73
2024/01/22 12:36:36;;;;;;;26.07;5.40;;;10.00;69.00;;;;;;4985848;28;20076;-72
2024/01/22 12:39:05;;;;;;;25.30;6.47;;;10.00;68.70;;;;;;5007012;28;20130;-72
2024/01/22 12:41:32;;;;;;;26.17;6.07;;;9.80;68.40;;;;;;5007450;28;20069;-74
2024/01/22 12:43:58;;;;;;;28.17;6.10;;;9.80;69.20;;;;;;4989901;28;20057;-72